KDTL/DTL METAR and TAF weather

Enter ICAO airport designator
Station Type Date Time Source
KDTL METAR 2018/01/22 11:55 UTC NOAA

KDTL 221155Z AUTO 04008KT 10SM OVC005 M03/M03 A2998 RMK AO2


Station Type Date Time Source
KDTL Decoded METAR 2018/01/22 11:55 UTC NOAA

Detroit Lakes, Detroit Lakes Airport-Wething Field, MN, United States (KDTL) 46-50N 095-53W
Jan 22, 2018 - 06:55 AM EST / 2018.01.22 1155 UTC
Wind: from the NE (040 degrees) at 9 MPH (8 KT):0
Visibility: 10 mile(s):0
Sky conditions: overcast
Temperature: 26 F (-3 C)
Windchill: 17 F (-8 C):1
Dew Point: 26 F (-3 C)
Relative Humidity: 100%
Pressure (altimeter): 29.98 in. Hg (1015 hPa)
ob: KDTL 221155Z AUTO 04008KT 10SM OVC005 M03/M03 A2998 RMK AO2
cycle: 12

Station Type Date Time Source
KDTL TAF UTC NOAA

Error!


Example: see airport list